METAR stanice u blizini

 

LYBE - Beograd / Surčin, Srbija
Ažurirano: 11/04/2021 09:00
Vedro
Vedro
 Pravac vetra JJI
Vetar: JJI 9 km/h
Temperatura: 14°C
Tačka rose: 1°C
Vlažnost: 41%
Pritisak: 1021 hPa
Pregled: Vedro
Vidljivost: greater than 10 km
2021/04/11 07:00 LYBE 110700Z 15005KT CAVOK 14/01 Q1021 NOSIG
LYBT - Beograd / Batajnica, Srbija
Ažurirano: 11/04/2021 09:00
Vedro
Vedro
 Pravac vetra JI
Vetar: JI 7 km/h
Temperatura: 13°C
Tačka rose: 1°C
Vlažnost: 44%
Pritisak: 1021 hPa
Pregled: Vedro
Vidljivost: greater than 10 km
2021/04/11 07:00 LYBT 110700Z 14004KT 110V190 CAVOK 13/01 Q1021 NOSIG
LYVR - Vršac, Srbija
Ažurirano: 11/04/2021 09:00
Vedro
Vedro
 Pravac vetra JI
Vetar: JI 31 km/h
Temperatura: 15°C
Tačka rose: -2°C
Vlažnost: 31%
Pritisak: 1022 hPa
Pregled: Vedro
Vidljivost: greater than 10 km
2021/04/11 07:00 LYVR 110700Z 13017KT 100V160 CAVOK 15/M02 Q1022
 
LYKV - Lađevci, Srbija
Ažurirano: 11/04/2021 09:00
Vedro
Vedro
 Pravac vetra varies
Vetar: varies 2 km/h
Temperatura: 9°C
Tačka rose: 4°C
Vlažnost: 71%
Pritisak: 1023 hPa
Pregled: Vedro
Vidljivost: greater than 10 km
2021/04/11 07:00 LYKV 110700Z VRB01KT CAVOK 09/04 Q1023 NOSIG
LYNI - Niš, Srbija
Ažurirano: 11/04/2021 09:00
Vedro
Vedro
 Pravac vetra JJZ
Vetar: JJZ 7 km/h
Temperatura: 9°C
Osećaj hladnoće: 8°C
Tačka rose: 0°C
Vlažnost: 54%
Pritisak: 1024 hPa
Pregled: Vedro
Vidljivost: greater than 10 km
2021/04/11 07:00 LYNI 110700Z 21004KT 140V260 CAVOK 09/M00 Q1024 NOSIG
BKPR - Priština, Srbija
Ažurirano: 11/04/2021 09:30
Vedro
Vedro
 Pravac vetra varies
Vetar: varies 4 km/h
Temperatura: 9°C
Tačka rose: 0°C
Vlažnost: 54%
Pritisak: 1024 hPa
Pregled: Vedro
Vidljivost: greater than 10 km
2021/04/11 07:30 BKPR 110730Z VRB02KT CAVOK 09/M00 Q1024 NOSIG
 
LHPP - Pecs / Pogany, Hungary
Ažurirano: 11/04/2021 08:45
Vedro
Vedro
 Pravac vetra JJI
Vetar: JJI 6 km/h
Temperatura: 9°C
Tačka rose: 4°C
Vlažnost: 71%
Pritisak: 1020 hPa
Pregled: Vedro
Vidljivost: greater than 10 km
2021/04/11 06:45 LHPP 110645Z 16003KT CAVOK 09/04 Q1020
LHUD - Szeged, Hungary
Ažurirano: 04/07/2019 01:45
NOT Current
Vedro
Vedro
 Pravac vetra S
Vetar: S 7 km/h
Temperatura: 18°C
Tačka rose: 13°C
Vlažnost: 73%
Pritisak: 1019 hPa
Pregled: Vedro
Vidljivost: greater than 10 km
2019/07/03 23:45 LHUD 032345Z 35004KT CAVOK 18/13 Q1019
LRTR - Timisoara, Romania
Ažurirano: 11/04/2021 09:00
Vedro
Vedro
 Pravac vetra I
Vetar: I 20 km/h
Temperatura: 12°C
Tačka rose: 1°C
Vlažnost: 47%
Pritisak: 1022 hPa
Pregled: Vedro
Vidljivost: greater than 10 km
2021/04/11 07:00 LRTR 110700Z 10011KT CAVOK 12/01 Q1022
 
LRCV - Craiova, Romania
Ažurirano: 11/04/2021 09:00
Vedro
Vedro
 Pravac vetra I
Vetar: I 13 km/h
Temperatura: 10°C
Osećaj hladnoće: 8°C
Tačka rose: -2°C
Vlažnost: 43%
Pritisak: 1025 hPa
Pregled: Vedro
Vidljivost: greater than 10 km
2021/04/11 07:00 LRCV 110700Z 08007KT CAVOK 10/M02 Q1025
LBSF - Sofia, Bulgaria
Ažurirano: 11/04/2021 09:00
Vedro
Vedro
 Pravac vetra varies
Vetar: varies 4 km/h
Temperatura: 7°C
Tačka rose: -1°C
Vlažnost: 57%
Pritisak: 1024 hPa
Pregled: Vedro
Vidljivost: greater than 10 km
2021/04/11 07:00 LBSF 110700Z VRB02KT CAVOK 07/M01 Q1024 NOSIG
LWSK - Skoplje, Makedonija
Ažurirano: 11/04/2021 09:00
Vedro
Vedro
 Pravac vetra ZSZ
Vetar: ZSZ 4 km/h
Temperatura: 7°C
Tačka rose: 1°C
Vlažnost: 66%
Pritisak: 1026 hPa
Pregled: Vedro
Vidljivost: greater than 10 km
2021/04/11 07:00 LWSK 110700Z 30002KT CAVOK 07/01 Q1026 NOSIG
 
LYPG - Podgorica, Crna Gora
Ažurirano: 11/04/2021 09:00
Vedro
Vedro
 Pravac vetra S
Vetar: S 6 km/h
Temperatura: 10°C
Tačka rose: 1°C
Vlažnost: 54%
Pritisak: 1025 hPa
Pregled: Vedro
Vidljivost: greater than 10 km
2021/04/11 07:00 LYPG 110700Z 01003KT 340V040 CAVOK 10/01 Q1025 NOSIG
LQSA - Sarajevo, Bosna i Hercegovina
Ažurirano: 11/04/2021 09:00
Vedro
Vedro
 Pravac vetra varies
Vetar: varies 2 km/h
Temperatura: 5°C
Tačka rose: 0°C
Vlažnost: 70%
Pritisak: 1021 hPa
Pregled: Vedro
Vidljivost: greater than 10 km
2021/04/11 07:00 LQSA 110700Z VRB01KT CAVOK 05/00 Q1021 NOSIG
LDOS - Osijek, Hrvatksa
Ažurirano: 11/04/2021 09:00
Vedro
Vedro
 Pravac vetra JI
Vetar: JI 6 km/h
Temperatura: 11°C
Tačka rose: 6°C
Vlažnost: 72%
Pritisak: 1021 hPa
Pregled: Vedro
Vidljivost: greater than 10 km
2021/04/11 07:00 LDOS 110700Z 14003KT CAVOK 11/06 Q1021